createdAt,value
2022-10-08T00:02:18.782Z,50.74
2022-10-08T00:05:23.253Z,50.80
2022-10-08T00:08:30.138Z,48.62
2022-10-08T00:11:41.550Z,48.84
2022-10-08T00:14:45.818Z,48.12
2022-10-08T00:17:50.039Z,46.70
2022-10-08T00:21:04.901Z,46.76
2022-10-08T00:24:11.880Z,46.81
2022-10-08T00:27:17.072Z,45.97
2022-10-08T00:30:21.400Z,45.54
2022-10-08T00:33:25.562Z,43.53
2022-10-08T00:36:35.313Z,42.50
2022-10-08T00:39:39.992Z,42.38
2022-10-08T00:42:46.556Z,41.58
2022-10-08T00:45:51.211Z,40.67
2022-10-08T00:49:25.910Z,39.09
2022-10-08T00:52:35.976Z,39.44
2022-10-08T00:55:43.876Z,37.90
2022-10-08T00:58:50.149Z,37.42
2022-10-08T01:01:54.914Z,37.13
2022-10-08T01:04:59.936Z,36.00
2022-10-08T01:08:22.445Z,36.87
2022-10-08T01:12:02.778Z,34.70
2022-10-08T01:15:23.206Z,36.20
2022-10-08T01:18:53.412Z,34.05
2022-10-08T01:22:19.877Z,33.93
2022-10-08T01:25:35.694Z,34.74
2022-10-08T01:28:46.910Z,34.55
2022-10-08T01:32:04.763Z,33.81
2022-10-08T01:35:15.175Z,32.87
2022-10-08T01:38:23.108Z,33.62
2022-10-08T01:41:30.356Z,34.06
2022-10-08T01:44:48.058Z,34.35
2022-10-08T01:47:53.744Z,34.44
2022-10-08T01:51:16.112Z,34.05
2022-10-08T01:54:23.385Z,33.72
2022-10-08T01:57:30.193Z,35.60
2022-10-08T02:00:36.849Z,34.59
2022-10-08T02:04:01.085Z,34.76
2022-10-08T02:07:29.824Z,34.68
2022-10-08T02:10:34.459Z,34.81
2022-10-08T02:13:39.142Z,34.76
2022-10-08T02:16:52.414Z,35.26
2022-10-08T02:20:23.237Z,34.89
2022-10-08T02:23:53.742Z,35.13
2022-10-08T02:27:02.566Z,35.82
2022-10-08T02:30:11.357Z,34.77
2022-10-08T02:33:22.409Z,35.43
2022-10-08T02:36:38.083Z,35.22
2022-10-08T02:39:47.944Z,35.79
2022-10-08T02:42:58.002Z,35.73
2022-10-08T02:46:18.007Z,35.75
2022-10-08T02:49:28.418Z,36.00
2022-10-08T02:52:40.317Z,36.32
2022-10-08T02:55:55.650Z,36.88
2022-10-08T02:59:00.101Z,36.47
2022-10-08T03:02:06.563Z,37.08
2022-10-08T03:05:18.647Z,36.71
2022-10-08T03:08:23.484Z,36.49
2022-10-08T03:11:28.916Z,36.49
2022-10-08T03:14:36.748Z,36.60
2022-10-08T03:17:45.876Z,36.60
2022-10-08T03:20:52.744Z,36.20
2022-10-08T03:23:57.177Z,36.56
2022-10-08T03:27:01.673Z,36.01
2022-10-08T03:30:06.534Z,35.71
2022-10-08T03:33:11.024Z,35.57
2022-10-08T03:36:15.629Z,35.65
2022-10-08T03:39:20.031Z,35.32
2022-10-08T03:42:24.278Z,34.72
2022-10-08T03:45:28.772Z,35.15
2022-10-08T03:48:33.729Z,35.13
2022-10-08T03:51:38.217Z,34.68
2022-10-08T03:54:42.571Z,34.34
2022-10-08T03:57:46.997Z,35.00
2022-10-08T04:01:24.141Z,33.68
2022-10-08T04:04:28.760Z,33.53
2022-10-08T04:07:33.439Z,33.65
2022-10-08T04:10:39.674Z,33.79
2022-10-08T04:13:45.051Z,32.80
2022-10-08T04:16:49.534Z,33.57
2022-10-08T04:19:54.303Z,33.28
2022-10-08T04:22:58.812Z,33.39
2022-10-08T04:26:03.974Z,32.97
2022-10-08T04:29:09.150Z,33.10
2022-10-08T04:32:13.465Z,32.69
2022-10-08T04:35:17.968Z,32.35
2022-10-08T04:38:23.195Z,33.39
2022-10-08T04:41:28.807Z,32.90
2022-10-08T04:44:32.954Z,32.56
2022-10-08T04:47:37.477Z,31.14
2022-10-08T04:50:42.177Z,31.41
2022-10-08T04:53:47.062Z,31.94
2022-10-08T04:56:51.660Z,31.52
2022-10-08T05:00:16.956Z,31.27
2022-10-08T05:03:20.567Z,31.17
2022-10-08T05:06:28.982Z,31.05
2022-10-08T05:09:33.183Z,31.10
2022-10-08T05:12:37.736Z,29.93
2022-10-08T05:15:42.092Z,29.89
2022-10-08T05:18:46.803Z,29.53
2022-10-08T05:21:51.316Z,30.34
2022-10-08T05:24:55.508Z,30.22
2022-10-08T05:28:00.299Z,30.64
2022-10-08T05:31:04.954Z,30.51
2022-10-08T05:34:09.537Z,29.89
2022-10-08T05:37:13.893Z,30.76
2022-10-08T05:40:18.203Z,30.42
2022-10-08T05:43:22.508Z,30.64
2022-10-08T05:46:29.085Z,31.01
2022-10-08T05:49:33.759Z,30.79
2022-10-08T05:52:38.161Z,30.63
2022-10-08T05:55:42.778Z,30.64
2022-10-08T05:58:47.944Z,30.11
2022-10-08T06:01:53.312Z,30.46
2022-10-08T06:04:57.497Z,30.41
2022-10-08T06:08:01.967Z,30.63
2022-10-08T06:11:07.846Z,30.59
2022-10-08T06:14:14.322Z,30.61
2022-10-08T06:17:18.783Z,30.41
2022-10-08T06:20:23.138Z,30.61
2022-10-08T06:23:27.728Z,30.96
2022-10-08T06:26:40.174Z,29.87
2022-10-08T06:29:44.658Z,29.94
2022-10-08T06:32:49.410Z,30.14
2022-10-08T06:35:54.317Z,29.92
2022-10-08T06:39:04.911Z,29.38
2022-10-08T06:42:09.376Z,30.11
2022-10-08T06:45:14.445Z,29.67
2022-10-08T06:48:20.612Z,30.23
2022-10-08T06:51:25.051Z,29.38
2022-10-08T06:54:29.419Z,29.17
2022-10-08T06:57:34.107Z,29.37
2022-10-08T07:00:39.858Z,29.21
2022-10-08T07:03:44.623Z,30.02
2022-10-08T07:06:49.145Z,30.38
2022-10-08T07:09:53.440Z,30.60
2022-10-08T07:12:57.859Z,30.76
2022-10-08T07:16:07.680Z,30.82
2022-10-08T07:19:12.084Z,30.41
2022-10-08T07:22:16.446Z,31.39
2022-10-08T07:25:20.840Z,31.67
2022-10-08T07:28:26.634Z,31.84
2022-10-08T07:31:36.453Z,31.86
2022-10-08T07:34:40.945Z,32.70
2022-10-08T07:37:45.595Z,33.37
2022-10-08T07:40:51.854Z,33.13
2022-10-08T07:44:00.681Z,33.70
2022-10-08T07:47:05.363Z,33.69
2022-10-08T07:50:10.380Z,34.27
2022-10-08T07:53:14.738Z,34.07
2022-10-08T07:56:22.233Z,34.26
2022-10-08T07:59:26.669Z,34.68
2022-10-08T08:02:31.040Z,34.67
2022-10-08T08:05:36.658Z,34.76
2022-10-08T08:08:41.750Z,35.31
2022-10-08T08:11:47.411Z,35.52
2022-10-08T08:14:52.033Z,35.50
2022-10-08T08:17:56.523Z,36.39
2022-10-08T08:21:06.148Z,37.02
2022-10-08T08:24:16.030Z,37.55
2022-10-08T08:27:20.411Z,37.85
2022-10-08T08:30:24.721Z,38.63
2022-10-08T08:33:29.245Z,38.87
2022-10-08T08:36:37.189Z,40.06
2022-10-08T08:39:42.006Z,40.54
2022-10-08T08:42:56.336Z,41.41
2022-10-08T08:46:02.836Z,41.11
2022-10-08T08:49:16.506Z,42.16
2022-10-08T08:52:26.193Z,42.51
2022-10-08T08:55:50.159Z,44.60
2022-10-08T08:59:29.589Z,44.65
2022-10-08T09:02:40.228Z,43.60
2022-10-08T09:05:48.776Z,43.83
2022-10-08T09:09:03.851Z,44.13
2022-10-08T09:12:20.446Z,44.42
2022-10-08T09:15:34.419Z,44.42
2022-10-08T09:18:39.294Z,45.24
2022-10-08T09:21:43.967Z,45.68
2022-10-08T09:24:53.122Z,46.60
2022-10-08T09:28:01.841Z,46.33
2022-10-08T09:31:20.167Z,44.88
2022-10-08T09:34:24.934Z,44.98
2022-10-08T09:37:29.532Z,45.99
2022-10-08T09:40:34.367Z,45.74
2022-10-08T09:43:38.872Z,46.21
2022-10-08T09:46:43.675Z,47.11
2022-10-08T09:50:02.754Z,46.55
2022-10-08T09:53:07.890Z,48.44
2022-10-08T09:56:14.910Z,47.83
2022-10-08T09:59:22.655Z,47.34
2022-10-08T10:02:31.910Z,49.42
2022-10-08T10:05:38.050Z,50.72
2022-10-08T10:09:00.988Z,52.79
2022-10-08T10:12:21.037Z,52.96
2022-10-08T10:15:35.670Z,52.52
2022-10-08T10:19:02.582Z,53.66
2022-10-08T10:22:23.101Z,53.78
2022-10-08T10:25:39.293Z,54.74
2022-10-08T10:28:54.288Z,53.17
2022-10-08T10:32:20.975Z,53.60
2022-10-08T10:35:31.545Z,53.69
2022-10-08T10:38:43.248Z,53.49
2022-10-08T10:41:56.751Z,53.89
2022-10-08T10:45:35.997Z,56.70
2022-10-08T10:48:40.423Z,54.47
2022-10-08T10:52:34.538Z,56.76
2022-10-08T10:56:02.973Z,55.79
2022-10-08T10:59:21.488Z,56.47
2022-10-08T11:02:44.385Z,56.06
2022-10-08T11:05:56.729Z,55.77
2022-10-08T11:09:31.983Z,56.92
2022-10-08T11:13:26.539Z,56.65
2022-10-08T11:16:31.263Z,55.54
2022-10-08T11:20:00.217Z,57.34
2022-10-08T11:23:22.554Z,57.38
2022-10-08T11:26:45.815Z,57.94
2022-10-08T11:30:07.399Z,58.75
2022-10-08T11:33:15.457Z,57.77
2022-10-08T11:36:23.021Z,59.24
2022-10-08T11:40:00.589Z,60.35
2022-10-08T11:43:20.221Z,59.74
2022-10-08T11:46:32.227Z,58.25
2022-10-08T11:49:39.438Z,57.92
2022-10-08T11:52:44.285Z,57.11
2022-10-08T11:56:00.244Z,59.28
2022-10-08T11:59:28.558Z,61.27
2022-10-08T12:02:39.423Z,59.54
2022-10-08T12:05:51.776Z,60.14
2022-10-08T12:08:58.940Z,60.32
2022-10-08T12:12:14.929Z,61.75
2022-10-08T12:15:25.432Z,61.70
2022-10-08T12:18:32.292Z,60.24
2022-10-08T12:21:47.882Z,60.54
2022-10-08T12:24:58.399Z,61.28
2022-10-08T12:28:22.067Z,60.98
2022-10-08T12:31:33.094Z,59.57
2022-10-08T12:34:37.560Z,58.64
2022-10-08T12:37:45.169Z,59.76
2022-10-08T12:41:27.630Z,60.63
2022-10-08T12:45:09.561Z,65.73
2022-10-08T12:48:42.069Z,64.05
2022-10-08T12:52:12.918Z,62.40
2022-10-08T12:55:24.421Z,62.06
2022-10-08T12:58:32.784Z,60.50
2022-10-08T13:01:37.439Z,61.24
2022-10-08T13:04:47.676Z,61.26
2022-10-08T13:07:52.526Z,61.81
2022-10-08T13:10:58.751Z,63.02
2022-10-08T13:14:02.752Z,66.46
2022-10-08T13:17:07.829Z,63.86
2022-10-08T13:20:12.076Z,63.74
2022-10-08T13:23:38.491Z,64.32
2022-10-08T13:26:44.249Z,63.48
2022-10-08T13:29:48.356Z,66.44
2022-10-08T13:33:04.029Z,64.26
2022-10-08T13:36:08.669Z,64.07
2022-10-08T13:39:25.235Z,64.66
2022-10-08T13:42:34.498Z,63.79
2022-10-08T13:45:38.990Z,62.78
2022-10-08T13:48:46.725Z,63.09
2022-10-08T13:51:51.980Z,62.80
2022-10-08T13:55:01.332Z,65.49
2022-10-08T13:58:08.407Z,65.80
2022-10-08T14:01:13.125Z,67.63
2022-10-08T14:04:18.761Z,67.30
2022-10-08T14:07:30.053Z,68.51
2022-10-08T14:10:34.665Z,69.25
2022-10-08T14:13:39.079Z,68.28
2022-10-08T14:16:44.313Z,68.04
2022-10-08T14:19:49.068Z,67.99
2022-10-08T14:22:53.655Z,66.10
2022-10-08T14:25:58.163Z,65.89
2022-10-08T14:29:02.589Z,65.81
2022-10-08T14:32:09.331Z,65.62
2022-10-08T14:35:14.610Z,66.49
2022-10-08T14:38:19.325Z,67.13
2022-10-08T14:41:23.711Z,66.02
2022-10-08T14:44:28.085Z,65.93
2022-10-08T14:47:32.390Z,66.76
2022-10-08T14:50:36.727Z,66.87
2022-10-08T14:53:41.204Z,66.38
2022-10-08T14:56:46.882Z,67.41
2022-10-08T14:59:51.264Z,68.00
2022-10-08T15:02:55.830Z,68.23
2022-10-08T15:06:01.716Z,69.32
2022-10-08T15:09:06.388Z,68.58
2022-10-08T15:12:10.680Z,67.37
2022-10-08T15:15:15.292Z,67.95
2022-10-08T15:18:19.668Z,69.74
2022-10-08T15:21:24.079Z,68.20
2022-10-08T15:24:28.818Z,69.09
2022-10-08T15:27:33.121Z,70.25
2022-10-08T15:30:37.793Z,69.47
2022-10-08T15:33:47.836Z,70.69
2022-10-08T15:36:56.706Z,69.86
2022-10-08T15:40:01.000Z,69.24
2022-10-08T15:43:06.774Z,69.02
2022-10-08T15:46:14.286Z,68.05
2022-10-08T15:49:18.689Z,69.13
2022-10-08T15:52:23.319Z,70.39
2022-10-08T15:55:27.615Z,71.04
2022-10-08T15:58:50.347Z,72.22
2022-10-08T16:01:55.094Z,72.85
2022-10-08T16:04:59.271Z,74.11
2022-10-08T16:08:03.745Z,73.60
2022-10-08T16:11:32.596Z,73.46
2022-10-08T16:14:37.022Z,70.07
2022-10-08T16:17:41.455Z,70.40
2022-10-08T16:20:47.333Z,70.34
2022-10-08T16:23:53.940Z,70.89
2022-10-08T16:26:58.488Z,71.13
2022-10-08T16:30:02.925Z,71.86
2022-10-08T16:33:07.434Z,70.76
2022-10-08T16:36:13.067Z,70.57
2022-10-08T16:39:21.426Z,65.26
2022-10-08T16:42:26.511Z,61.26
2022-10-08T16:45:30.832Z,59.39
2022-10-08T16:48:41.507Z,59.19
2022-10-08T16:51:46.570Z,57.95
2022-10-08T16:54:54.704Z,56.33
2022-10-08T16:57:59.421Z,55.48
2022-10-08T17:01:08.211Z,54.44
2022-10-08T17:04:15.052Z,54.11
2022-10-08T17:07:19.447Z,53.44
2022-10-08T17:10:24.158Z,52.19
2022-10-08T17:13:28.550Z,52.28
2022-10-08T17:16:33.128Z,52.22
2022-10-08T17:19:38.028Z,51.74
2022-10-08T17:22:42.233Z,51.74
2022-10-08T17:25:47.146Z,51.54
2022-10-08T17:28:52.884Z,50.87
2022-10-08T17:31:57.235Z,50.62
2022-10-08T17:35:01.550Z,51.25
2022-10-08T17:38:07.071Z,52.09
2022-10-08T17:41:13.365Z,51.91
2022-10-08T17:44:18.123Z,51.82
2022-10-08T17:47:25.809Z,51.38
2022-10-08T17:50:37.183Z,51.30
2022-10-08T17:53:41.746Z,51.41
2022-10-08T17:56:46.649Z,51.40
2022-10-08T17:59:51.127Z,51.49
2022-10-08T18:02:55.986Z,50.89
2022-10-08T18:06:01.156Z,50.42
2022-10-08T18:09:08.651Z,50.56
2022-10-08T18:12:13.958Z,49.46
2022-10-08T18:15:18.318Z,49.81
2022-10-08T18:18:22.692Z,49.37
2022-10-08T18:21:27.141Z,49.36
2022-10-08T18:24:31.599Z,49.18
2022-10-08T18:27:35.752Z,48.76
2022-10-08T18:30:40.697Z,48.62
2022-10-08T18:33:47.109Z,48.88
2022-10-08T18:36:51.226Z,48.02
2022-10-08T18:39:55.418Z,47.69
2022-10-08T18:43:00.303Z,47.69
2022-10-08T18:46:05.388Z,47.98
2022-10-08T18:49:13.329Z,47.83
2022-10-08T18:52:21.390Z,47.26
2022-10-08T18:55:26.185Z,47.02
2022-10-08T18:58:30.863Z,47.20
2022-10-08T19:01:39.143Z,47.14
2022-10-08T19:04:43.723Z,46.75
2022-10-08T19:07:48.035Z,46.92
2022-10-08T19:10:52.539Z,46.23
2022-10-08T19:13:57.324Z,46.16
2022-10-08T19:17:02.175Z,46.54
2022-10-08T19:20:07.309Z,45.85
2022-10-08T19:23:11.575Z,46.68
2022-10-08T19:26:16.751Z,46.81
2022-10-08T19:29:23.978Z,46.72
2022-10-08T19:32:28.747Z,45.88
2022-10-08T19:35:33.089Z,45.85
2022-10-08T19:38:37.601Z,45.78
2022-10-08T19:41:43.246Z,45.96
2022-10-08T19:44:47.723Z,46.15
2022-10-08T19:47:52.233Z,46.98
2022-10-08T19:50:56.836Z,47.03
2022-10-08T19:54:02.564Z,46.72
2022-10-08T19:57:06.650Z,47.50
2022-10-08T20:00:11.816Z,47.79
2022-10-08T20:03:16.398Z,47.56
2022-10-08T20:06:24.593Z,47.54
2022-10-08T20:09:31.437Z,48.30
2022-10-08T20:12:35.832Z,47.75
2022-10-08T20:15:41.040Z,48.86
2022-10-08T20:18:53.404Z,48.57
2022-10-08T20:21:57.841Z,48.95
2022-10-08T20:25:02.222Z,48.71
2022-10-08T20:28:06.895Z,48.91
2022-10-08T20:31:17.491Z,48.14
2022-10-08T20:34:33.968Z,47.94
2022-10-08T20:37:38.475Z,48.44
2022-10-08T20:40:43.383Z,47.46
2022-10-08T20:43:48.039Z,47.74
2022-10-08T20:46:53.323Z,47.74
2022-10-08T20:49:57.587Z,48.39
2022-10-08T20:53:01.981Z,48.98
2022-10-08T20:56:07.434Z,48.14
2022-10-08T20:59:17.227Z,48.02
2022-10-08T21:02:21.516Z,48.68
2022-10-08T21:05:26.632Z,49.82
2022-10-08T21:08:31.360Z,48.50
2022-10-08T21:11:36.942Z,48.52
2022-10-08T21:14:41.522Z,48.62
2022-10-08T21:17:45.789Z,49.43
2022-10-08T21:20:52.927Z,49.05
2022-10-08T21:23:58.587Z,48.92
2022-10-08T21:27:03.045Z,49.17
2022-10-08T21:30:07.743Z,49.25
2022-10-08T21:33:12.250Z,49.10
2022-10-08T21:36:25.918Z,48.11
2022-10-08T21:39:30.420Z,47.97
2022-10-08T21:42:34.874Z,47.44
2022-10-08T21:45:39.304Z,47.61
2022-10-08T21:48:43.672Z,46.74
2022-10-08T21:51:48.510Z,46.39
2022-10-08T21:54:52.950Z,46.94
2022-10-08T21:57:57.184Z,46.77
2022-10-08T22:01:01.337Z,46.64
2022-10-08T22:04:12.712Z,46.66
2022-10-08T22:07:16.978Z,46.55
2022-10-08T22:10:21.442Z,46.38
2022-10-08T22:13:25.925Z,47.18
2022-10-08T22:16:30.623Z,46.54
2022-10-08T22:19:37.511Z,46.81
2022-10-08T22:22:41.983Z,46.97
2022-10-08T22:25:56.928Z,47.38
2022-10-08T22:29:01.650Z,47.63
2022-10-08T22:32:07.283Z,48.06
2022-10-08T22:35:11.688Z,47.72
2022-10-08T22:38:16.385Z,47.38
2022-10-08T22:41:26.661Z,46.85
2022-10-08T22:44:31.427Z,46.23
2022-10-08T22:47:35.732Z,46.55
2022-10-08T22:50:39.869Z,46.89
2022-10-08T22:53:44.637Z,46.84
2022-10-08T22:56:49.222Z,46.44
2022-10-08T22:59:54.123Z,45.81
2022-10-08T23:02:58.712Z,46.07
2022-10-08T23:06:11.584Z,46.54
2022-10-08T23:09:16.016Z,46.43
2022-10-08T23:12:20.615Z,45.27
2022-10-08T23:15:25.041Z,45.76
2022-10-08T23:18:30.729Z,45.26
2022-10-08T23:21:36.354Z,44.80
2022-10-08T23:24:40.954Z,45.44
2022-10-08T23:27:45.448Z,44.70
2022-10-08T23:30:49.845Z,43.90
2022-10-08T23:33:55.712Z,43.50
2022-10-08T23:36:59.760Z,43.85
2022-10-08T23:40:04.565Z,44.04
2022-10-08T23:43:09.076Z,44.55
2022-10-08T23:46:15.907Z,43.86
2022-10-08T23:49:20.537Z,43.47
2022-10-08T23:52:26.150Z,43.66
2022-10-08T23:55:30.562Z,43.74
2022-10-08T23:58:35.239Z,43.69
